createdAt,value
2019-01-17T12:20:09.253Z,10.70
2019-01-17T12:20:32.735Z,7.53
2019-01-17T12:20:56.194Z,8.53
2019-01-17T12:21:19.634Z,7.20
2019-01-17T12:21:44.109Z,6.75
2019-01-17T12:22:07.565Z,7.95
2019-01-17T12:22:31.110Z,17.23
2019-01-17T12:22:54.574Z,39.20
2019-01-17T12:23:18.009Z,29.18
2019-01-17T12:23:41.525Z,20.70
2019-01-17T12:24:04.954Z,12.63
2019-01-17T12:24:28.360Z,9.48
2019-01-17T12:24:51.761Z,9.43
2019-01-17T12:25:15.176Z,6.20
2019-01-17T12:25:38.719Z,9.68
2019-01-17T12:26:02.118Z,8.63
2019-01-17T12:26:25.502Z,8.05
2019-01-17T12:26:48.965Z,9.80
2019-01-17T12:27:12.470Z,8.00
2019-01-17T12:27:42.358Z,7.60
2019-01-17T12:28:00.909Z,9.23
2019-01-17T12:28:24.524Z,8.25
2019-01-17T12:28:47.950Z,11.57
2019-01-17T12:29:11.349Z,11.60
2019-01-17T12:29:34.845Z,8.08
2019-01-17T12:29:58.284Z,10.20
2019-01-17T12:30:21.762Z,8.93
2019-01-17T12:30:45.297Z,7.35
2019-01-17T12:31:08.992Z,9.35
2019-01-17T12:31:32.504Z,7.40
2019-01-17T12:31:55.962Z,4.90
2019-01-17T12:32:19.303Z,8.78
2019-01-17T12:32:42.859Z,6.85
2019-01-17T12:33:06.311Z,8.05
2019-01-17T12:33:29.762Z,8.93
2019-01-17T12:33:53.210Z,7.25
2019-01-17T12:34:16.758Z,6.47
2019-01-17T12:34:40.205Z,7.90
2019-01-17T12:35:03.672Z,7.50
2019-01-17T12:35:27.211Z,10.08
2019-01-17T12:35:50.560Z,8.03
2019-01-17T12:36:14.010Z,7.80
2019-01-17T12:36:37.424Z,5.95
2019-01-17T12:37:00.913Z,7.08
2019-01-17T12:37:24.357Z,9.75
2019-01-17T12:37:47.804Z,10.43
2019-01-17T12:38:11.180Z,9.30
2019-01-17T12:38:34.982Z,7.83
2019-01-17T12:38:58.460Z,7.67
2019-01-17T12:39:21.818Z,7.35
2019-01-17T12:39:45.269Z,6.55
2019-01-17T12:40:10.952Z,7.45
2019-01-17T12:40:34.421Z,10.80
2019-01-17T12:40:57.861Z,10.78
2019-01-17T12:41:21.320Z,13.00
2019-01-17T12:41:44.862Z,12.15
2019-01-17T12:42:08.314Z,16.07
2019-01-17T12:42:31.763Z,26.77
2019-01-17T12:42:55.213Z,19.40
2019-01-17T12:43:18.704Z,13.27
2019-01-17T12:43:42.223Z,61.65
2019-01-17T12:44:05.664Z,65.57
2019-01-17T12:44:29.120Z,45.00
2019-01-17T12:44:52.565Z,45.15
2019-01-17T12:45:16.121Z,19.50
2019-01-17T12:45:39.587Z,11.80
2019-01-17T12:46:03.015Z,8.63
2019-01-17T12:46:26.475Z,10.35
2019-01-17T12:46:49.985Z,8.00
2019-01-17T12:47:13.477Z,7.62
2019-01-17T12:47:36.917Z,7.12
2019-01-17T12:48:00.470Z,9.63
2019-01-17T12:48:25.038Z,7.33
2019-01-17T12:48:48.501Z,13.00
2019-01-17T12:49:11.945Z,23.00
2019-01-17T12:49:35.504Z,34.40
2019-01-17T12:49:58.949Z,14.25
2019-01-17T12:50:22.418Z,14.18
2019-01-17T12:50:45.953Z,12.75
2019-01-17T12:51:09.504Z,11.15
2019-01-17T12:51:33.061Z,8.88
2019-01-17T12:51:56.439Z,8.75
2019-01-17T12:52:19.956Z,30.55
2019-01-17T12:52:43.348Z,55.67
2019-01-17T12:53:06.956Z,73.22
2019-01-17T12:53:30.516Z,58.90
2019-01-17T12:53:56.526Z,55.55
2019-01-17T12:54:19.866Z,49.95
2019-01-17T12:54:43.269Z,37.00
2019-01-17T12:55:08.385Z,19.77
2019-01-17T12:55:31.861Z,21.05
2019-01-17T12:55:55.406Z,22.55
2019-01-17T12:56:19.885Z,19.17
2019-01-17T12:56:43.329Z,13.88
2019-01-17T12:57:06.630Z,6.95
2019-01-17T12:57:30.233Z,9.65
2019-01-17T12:57:53.681Z,12.82
2019-01-17T12:58:17.132Z,8.68
2019-01-17T12:58:40.587Z,9.05
2019-01-17T12:59:03.951Z,8.83
2019-01-17T12:59:27.326Z,6.12
2019-01-17T12:59:50.830Z,5.30
2019-01-17T13:00:18.923Z,6.12
2019-01-17T13:00:42.437Z,6.92
2019-01-17T13:01:06.008Z,10.10
2019-01-17T13:01:29.661Z,8.25
2019-01-17T13:01:53.198Z,12.60
2019-01-17T13:02:16.624Z,7.20
2019-01-17T13:02:40.163Z,6.15
2019-01-17T13:03:03.650Z,8.33
2019-01-17T13:03:26.982Z,8.53
2019-01-17T13:03:50.446Z,12.80
2019-01-17T13:04:13.852Z,13.35
2019-01-17T13:04:37.346Z,17.30
2019-01-17T13:05:00.797Z,14.50
2019-01-17T13:05:24.261Z,23.77
2019-01-17T13:05:47.696Z,27.35
2019-01-17T13:06:11.148Z,37.10
2019-01-17T13:06:34.608Z,25.72
2019-01-17T13:06:58.148Z,17.60
2019-01-17T13:07:21.600Z,21.27
2019-01-17T13:07:45.150Z,18.57
2019-01-17T13:08:08.703Z,13.85
2019-01-17T13:08:32.052Z,9.80
2019-01-17T13:08:55.395Z,10.20
2019-01-17T13:09:19.437Z,9.08
2019-01-17T13:09:43.015Z,6.33
2019-01-17T13:10:09.843Z,9.53
2019-01-17T13:10:33.226Z,7.00
2019-01-17T13:10:56.740Z,7.10
2019-01-17T13:11:20.147Z,5.97
2019-01-17T13:11:43.751Z,5.90
2019-01-17T13:12:07.302Z,6.33
2019-01-17T13:12:30.745Z,9.65
2019-01-17T13:12:54.126Z,10.85
2019-01-17T13:13:17.652Z,5.25
2019-01-17T13:13:41.102Z,6.53
2019-01-17T13:14:04.794Z,8.45
2019-01-17T13:14:28.276Z,7.62
2019-01-17T13:14:51.797Z,5.80
2019-01-17T13:15:15.255Z,6.42
2019-01-17T13:15:38.753Z,6.28
2019-01-17T13:16:05.807Z,4.87
2019-01-17T13:16:29.239Z,9.73
2019-01-17T13:16:52.645Z,16.12
2019-01-17T13:17:16.019Z,10.45
2019-01-17T13:17:39.487Z,30.27
2019-01-17T13:18:02.855Z,38.92
2019-01-17T13:18:26.303Z,24.95
2019-01-17T13:18:49.733Z,14.75
2019-01-17T13:19:13.183Z,15.48
2019-01-17T13:19:36.748Z,11.45
2019-01-17T13:20:00.289Z,8.70
2019-01-17T13:20:23.747Z,5.03
2019-01-17T13:20:47.290Z,7.47
2019-01-17T13:21:10.741Z,7.47
2019-01-17T13:21:34.193Z,5.87
2019-01-17T13:21:57.544Z,7.15
2019-01-17T13:22:20.935Z,7.45
2019-01-17T13:22:44.436Z,9.13
2019-01-17T13:23:07.995Z,11.68
2019-01-17T13:23:31.502Z,6.37
2019-01-17T13:23:54.993Z,10.50
2019-01-17T13:24:18.442Z,11.75
2019-01-17T13:24:41.889Z,7.72
2019-01-17T13:25:08.888Z,4.80
2019-01-17T13:25:51.831Z,5.90
2019-01-17T13:26:15.344Z,7.40
2019-01-17T13:26:39.143Z,9.58
2019-01-17T13:27:02.509Z,6.53
2019-01-17T13:27:25.940Z,7.95
2019-01-17T13:27:50.040Z,8.05
2019-01-17T13:28:13.541Z,13.70
2019-01-17T13:28:37.110Z,6.78
2019-01-17T13:29:00.660Z,8.58
2019-01-17T13:29:24.107Z,4.80
2019-01-17T13:29:47.560Z,5.62
2019-01-17T13:30:16.263Z,8.35
2019-01-17T13:30:39.789Z,4.85
2019-01-17T13:31:03.338Z,5.75
2019-01-17T13:31:26.888Z,5.37
2019-01-17T13:31:50.441Z,6.47
2019-01-17T13:32:13.895Z,5.20
2019-01-17T13:32:37.339Z,4.75
2019-01-17T13:33:00.799Z,4.42
2019-01-17T13:33:24.342Z,5.50
2019-01-17T13:33:47.798Z,4.43
2019-01-17T13:34:11.254Z,4.20
2019-01-17T13:34:34.699Z,6.20
2019-01-17T13:34:58.267Z,6.30
2019-01-17T13:35:21.800Z,6.30
2019-01-17T13:35:45.278Z,6.70
2019-01-17T13:36:10.478Z,5.33
2019-01-17T13:36:40.138Z,6.67
2019-01-17T13:36:58.975Z,8.73
2019-01-17T13:37:22.423Z,5.65
2019-01-17T13:37:45.946Z,8.38
2019-01-17T13:38:09.533Z,7.58
2019-01-17T13:38:33.011Z,7.22
2019-01-17T13:38:56.428Z,8.70
2019-01-17T13:39:19.887Z,4.85
2019-01-17T13:39:43.233Z,7.28
2019-01-17T13:40:10.060Z,10.63
2019-01-17T13:40:33.472Z,7.95
2019-01-17T13:40:56.953Z,5.08
2019-01-17T13:41:20.628Z,6.47
2019-01-17T13:41:44.068Z,7.85
2019-01-17T13:42:07.508Z,7.47
2019-01-17T13:42:30.963Z,18.02
2019-01-17T13:42:54.614Z,15.03
2019-01-17T13:43:18.165Z,13.08
2019-01-17T13:43:41.612Z,15.93
2019-01-17T13:44:04.998Z,8.85
2019-01-17T13:44:28.521Z,6.90
2019-01-17T13:44:51.868Z,9.23
2019-01-17T13:45:17.378Z,12.68
2019-01-17T13:45:40.816Z,7.97
2019-01-17T13:46:04.213Z,5.20
2019-01-17T13:46:27.717Z,6.85
2019-01-17T13:46:51.199Z,7.33
2019-01-17T13:47:14.617Z,5.97
2019-01-17T13:47:38.068Z,7.35
2019-01-17T13:48:01.511Z,6.22
2019-01-17T13:48:24.957Z,5.80
2019-01-17T13:48:48.414Z,8.18
2019-01-17T13:49:11.963Z,8.70
2019-01-17T13:49:35.423Z,7.83
2019-01-17T13:49:58.835Z,9.83
2019-01-17T13:50:22.319Z,7.00
2019-01-17T13:50:45.763Z,5.15
2019-01-17T13:51:09.217Z,5.60
2019-01-17T13:51:32.665Z,5.25
2019-01-17T13:51:56.031Z,7.87
2019-01-17T13:52:19.470Z,10.03
2019-01-17T13:52:42.914Z,10.28
2019-01-17T13:53:06.363Z,15.20
2019-01-17T13:53:29.715Z,10.32
2019-01-17T13:53:53.137Z,9.20
2019-01-17T13:54:16.564Z,15.43
2019-01-17T13:54:40.063Z,13.83
2019-01-17T13:55:04.285Z,7.87
2019-01-17T13:55:27.672Z,10.08
2019-01-17T13:55:51.119Z,7.30
2019-01-17T13:56:14.673Z,7.28
2019-01-17T13:56:38.053Z,6.78
2019-01-17T13:57:07.300Z,7.17
2019-01-17T13:57:26.509Z,5.37
2019-01-17T13:57:50.112Z,5.25
2019-01-17T13:58:13.663Z,10.72
2019-01-17T13:58:37.226Z,13.00
2019-01-17T13:59:00.673Z,8.25
2019-01-17T13:59:24.218Z,6.70
2019-01-17T13:59:47.769Z,14.68
2019-01-17T14:00:22.673Z,20.92
2019-01-17T14:00:46.242Z,21.42
2019-01-17T14:01:09.805Z,20.17
2019-01-17T14:01:33.346Z,15.15
2019-01-17T14:01:56.905Z,8.73
2019-01-17T14:02:20.251Z,8.93
2019-01-17T14:02:43.672Z,15.95
2019-01-17T14:03:07.145Z,10.80
2019-01-17T14:03:30.605Z,5.12
2019-01-17T14:03:54.114Z,5.15
2019-01-17T14:04:17.598Z,6.65
2019-01-17T14:04:41.150Z,8.05
2019-01-17T14:05:06.293Z,5.92
2019-01-17T14:05:29.651Z,9.40
2019-01-17T14:05:53.043Z,10.28
2019-01-17T14:06:16.587Z,6.53
2019-01-17T14:06:39.936Z,5.30
2019-01-17T14:07:03.316Z,6.35
2019-01-17T14:07:26.713Z,5.75
2019-01-17T14:07:50.695Z,7.78
2019-01-17T14:08:14.066Z,6.00
2019-01-17T14:08:37.594Z,6.22
2019-01-17T14:09:01.153Z,7.42
2019-01-17T14:09:24.696Z,6.40
2019-01-17T14:09:48.152Z,5.37
2019-01-17T14:10:14.033Z,6.85
2019-01-17T14:10:37.508Z,6.87
2019-01-17T14:11:01.066Z,5.87
2019-01-17T14:11:24.373Z,8.85
2019-01-17T14:11:47.763Z,7.05
2019-01-17T14:12:11.199Z,5.22
2019-01-17T14:12:34.656Z,6.55
2019-01-17T14:12:58.154Z,9.23
2019-01-17T14:13:21.569Z,8.93
2019-01-17T14:13:45.036Z,4.42
2019-01-17T14:14:08.559Z,11.65
2019-01-17T14:14:32.022Z,6.42
2019-01-17T14:14:55.454Z,9.68
2019-01-17T14:15:26.685Z,14.15
2019-01-17T14:15:50.418Z,13.50
2019-01-17T14:16:13.895Z,7.90
2019-01-17T14:16:37.347Z,7.15
2019-01-17T14:17:00.797Z,9.65
2019-01-17T14:17:24.140Z,14.28
2019-01-17T14:17:47.594Z,36.17
2019-01-17T14:18:10.978Z,18.82
2019-01-17T14:18:34.458Z,15.03
2019-01-17T14:18:57.948Z,14.13
2019-01-17T14:19:21.393Z,20.20
2019-01-17T14:19:44.843Z,19.07
2019-01-17T14:20:09.908Z,12.07
2019-01-17T14:20:33.251Z,8.23
2019-01-17T14:20:56.728Z,17.77
2019-01-17T14:21:25.487Z,22.93
2019-01-17T14:21:45.264Z,15.75
2019-01-17T14:22:08.815Z,11.65
2019-01-17T14:22:32.272Z,7.75
2019-01-17T14:22:55.722Z,12.53
2019-01-17T14:23:19.135Z,5.78
2019-01-17T14:23:42.624Z,9.83
2019-01-17T14:24:06.014Z,10.20
2019-01-17T14:24:29.423Z,6.40
2019-01-17T14:24:52.883Z,7.12
2019-01-17T14:25:17.347Z,6.47
2019-01-17T14:25:40.810Z,7.33
2019-01-17T14:26:04.355Z,7.15
2019-01-17T14:26:27.797Z,5.33
2019-01-17T14:26:51.255Z,7.15
2019-01-17T14:27:14.741Z,5.10
2019-01-17T14:27:38.159Z,5.65
2019-01-17T14:28:01.523Z,6.00
2019-01-17T14:28:24.925Z,4.87
2019-01-17T14:28:48.409Z,6.25
2019-01-17T14:29:11.853Z,5.83
2019-01-17T14:29:35.134Z,6.87
2019-01-17T14:29:58.584Z,6.78
2019-01-17T14:30:30.921Z,7.05
2019-01-17T14:30:54.659Z,4.40
2019-01-17T14:31:18.089Z,5.62
2019-01-17T14:31:41.466Z,6.67
2019-01-17T14:32:05.032Z,6.60
2019-01-17T14:32:28.391Z,7.85
2019-01-17T14:32:51.810Z,5.25
2019-01-17T14:33:15.161Z,6.60
2019-01-17T14:33:38.504Z,5.47
2019-01-17T14:34:02.056Z,6.00
2019-01-17T14:34:25.608Z,9.83
2019-01-17T14:34:49.013Z,9.33
2019-01-17T14:35:12.506Z,6.22
2019-01-17T14:35:35.858Z,7.53
2019-01-17T14:35:59.195Z,4.67
2019-01-17T14:36:22.556Z,6.97
2019-01-17T14:36:45.958Z,8.13
2019-01-17T14:37:09.553Z,6.25
2019-01-17T14:37:33.107Z,10.70
2019-01-17T14:37:56.558Z,11.05
2019-01-17T14:38:19.877Z,13.10
2019-01-17T14:38:43.412Z,20.25
2019-01-17T14:39:06.801Z,17.87
2019-01-17T14:39:30.252Z,12.53
2019-01-17T14:39:53.707Z,10.08
2019-01-17T14:40:17.155Z,9.73
2019-01-17T14:40:40.614Z,11.28
2019-01-17T14:41:04.059Z,6.97
2019-01-17T14:41:27.413Z,12.35
2019-01-17T14:41:50.951Z,13.15
2019-01-17T14:42:14.344Z,7.08
2019-01-17T14:42:37.860Z,6.28
2019-01-17T14:43:01.219Z,14.30
2019-01-17T14:43:24.653Z,13.72
2019-01-17T14:43:48.003Z,16.00
2019-01-17T14:44:11.414Z,19.80
2019-01-17T14:44:34.816Z,26.97
2019-01-17T14:44:58.242Z,14.65
2019-01-17T14:45:22.703Z,10.90
2019-01-17T14:45:46.172Z,6.87
2019-01-17T14:46:09.616Z,7.55
2019-01-17T14:46:33.171Z,6.72
2019-01-17T14:46:56.619Z,8.63
2019-01-17T14:47:20.061Z,7.53
2019-01-17T14:47:43.516Z,9.13
2019-01-17T14:48:06.872Z,8.23
2019-01-17T14:48:30.419Z,8.83
2019-01-17T14:48:53.874Z,9.65
2019-01-17T14:49:17.317Z,12.45
2019-01-17T14:49:40.688Z,11.05
2019-01-17T14:50:07.503Z,13.80
2019-01-17T14:50:31.581Z,10.90
2019-01-17T14:50:55.115Z,9.30
2019-01-17T14:51:18.561Z,9.38
2019-01-17T14:51:41.912Z,9.45
2019-01-17T14:52:05.326Z,8.20
2019-01-17T14:52:28.810Z,9.18
2019-01-17T14:52:52.117Z,10.35
2019-01-17T14:53:15.607Z,9.33
2019-01-17T14:53:39.056Z,4.58
2019-01-17T14:54:02.409Z,7.20
2019-01-17T14:54:25.855Z,8.23
2019-01-17T14:54:49.304Z,8.00
2019-01-17T14:55:12.753Z,6.65
2019-01-17T14:55:36.198Z,5.95
2019-01-17T14:55:59.658Z,6.43
2019-01-17T14:56:23.203Z,5.58
2019-01-17T14:56:46.553Z,8.30
2019-01-17T14:57:10.007Z,6.47
2019-01-17T14:57:33.467Z,4.53
2019-01-17T14:57:57.004Z,4.30
2019-01-17T14:58:20.452Z,6.05
2019-01-17T14:58:43.873Z,8.98
2019-01-17T14:59:07.318Z,9.88
2019-01-17T14:59:30.907Z,13.88
2019-01-17T14:59:54.322Z,14.47
2019-01-17T15:00:20.161Z,10.65
2019-01-17T15:00:43.451Z,17.80
2019-01-17T15:01:06.843Z,26.85
2019-01-17T15:01:30.282Z,15.75
2019-01-17T15:01:53.755Z,17.90
2019-01-17T15:02:17.082Z,17.17
2019-01-17T15:02:40.554Z,15.25
2019-01-17T15:03:04.105Z,15.10
2019-01-17T15:03:27.556Z,12.25
2019-01-17T15:03:50.983Z,22.45
2019-01-17T15:04:14.663Z,20.23
2019-01-17T15:04:38.110Z,23.73
2019-01-17T15:05:01.563Z,18.55
2019-01-17T15:05:24.995Z,17.67
2019-01-17T15:05:48.465Z,18.80
2019-01-17T15:06:12.011Z,18.92
2019-01-17T15:06:35.362Z,12.05
2019-01-17T15:06:58.811Z,12.43
2019-01-17T15:07:22.256Z,12.90
2019-01-17T15:07:45.819Z,15.40
2019-01-17T15:08:09.264Z,11.40
2019-01-17T15:08:32.718Z,10.35
2019-01-17T15:08:56.080Z,9.33
2019-01-17T15:09:19.610Z,9.50
2019-01-17T15:09:43.059Z,13.03
2019-01-17T15:10:12.305Z,11.20
2019-01-17T15:10:38.326Z,20.45
2019-01-17T15:11:02.497Z,15.75
2019-01-17T15:11:26.132Z,16.42
2019-01-17T15:11:49.504Z,9.10
2019-01-17T15:12:12.937Z,12.68
2019-01-17T15:12:36.362Z,19.35
2019-01-17T15:12:59.747Z,22.10
2019-01-17T15:13:23.333Z,16.67
2019-01-17T15:13:46.772Z,13.55
2019-01-17T15:14:10.335Z,13.72
2019-01-17T15:14:33.685Z,10.00
2019-01-17T15:14:57.125Z,12.13
2019-01-17T15:15:20.683Z,9.13
2019-01-17T15:15:44.127Z,12.13
2019-01-17T15:16:07.684Z,12.47
2019-01-17T15:16:31.239Z,20.15
2019-01-17T15:16:54.794Z,15.05
2019-01-17T15:17:18.344Z,12.90
2019-01-17T15:17:41.791Z,10.98
2019-01-17T15:18:05.336Z,11.73
2019-01-17T15:18:28.702Z,9.35
2019-01-17T15:19:54.169Z,6.20
2019-01-17T15:20:19.793Z,9.80
2019-01-17T15:20:43.240Z,8.93
2019-01-17T15:21:06.644Z,8.98
2019-01-17T15:21:30.146Z,12.45
2019-01-17T15:21:53.694Z,5.87
2019-01-17T15:22:17.141Z,7.00
2019-01-17T15:22:41.017Z,7.42
2019-01-17T15:23:04.758Z,4.67
2019-01-17T15:23:28.319Z,7.55
2019-01-17T15:23:51.783Z,7.67
2019-01-17T15:24:15.209Z,6.80
2019-01-17T15:24:38.619Z,6.95
2019-01-17T15:25:02.121Z,6.17
2019-01-17T15:25:25.558Z,8.83
2019-01-17T15:25:49.120Z,9.50
2019-01-17T15:26:12.627Z,11.45
2019-01-17T15:26:45.175Z,9.88
2019-01-17T15:27:08.684Z,7.60
2019-01-17T15:27:32.131Z,10.05
2019-01-17T15:27:55.590Z,7.15
2019-01-17T15:28:19.078Z,7.25
2019-01-17T15:28:42.588Z,7.15
2019-01-17T15:29:06.133Z,5.67
2019-01-17T15:29:29.581Z,11.25
2019-01-17T15:29:53.143Z,8.25
2019-01-17T15:30:19.353Z,8.73
2019-01-17T15:30:42.798Z,12.03
2019-01-17T15:31:06.353Z,14.40
2019-01-17T15:31:29.799Z,10.48
2019-01-17T15:31:53.253Z,11.93
2019-01-17T15:32:16.700Z,8.85
2019-01-17T15:32:40.253Z,7.20
2019-01-17T15:33:03.713Z,9.30
2019-01-17T15:33:27.364Z,6.15
2019-01-17T15:33:50.909Z,7.35
2019-01-17T15:34:14.358Z,12.78
2019-01-17T15:34:37.707Z,11.53
2019-01-17T15:35:01.162Z,9.78
2019-01-17T15:35:24.571Z,6.97
2019-01-17T15:35:48.060Z,9.83
2019-01-17T15:36:11.539Z,13.55
2019-01-17T15:36:34.957Z,14.78
2019-01-17T15:36:58.507Z,6.25
2019-01-17T15:37:21.936Z,6.12
2019-01-17T15:37:45.397Z,8.75
2019-01-17T15:38:08.961Z,7.90
2019-01-17T15:38:32.589Z,12.78
2019-01-17T15:38:56.113Z,8.75
2019-01-17T15:39:19.746Z,10.23
2019-01-17T15:39:43.173Z,9.93
2019-01-17T15:40:09.996Z,9.60
2019-01-17T15:40:33.550Z,7.58
2019-01-17T15:40:57.104Z,10.63
2019-01-17T15:41:20.559Z,9.95
2019-01-17T15:41:44.104Z,10.00
2019-01-17T15:42:07.573Z,10.70
2019-01-17T15:42:31.006Z,10.05
2019-01-17T15:42:54.466Z,8.98
2019-01-17T15:43:17.903Z,10.35
2019-01-17T15:43:41.457Z,9.88
2019-01-17T15:44:04.856Z,6.03
2019-01-17T15:44:28.464Z,5.42
2019-01-17T15:44:52.010Z,5.97
2019-01-17T15:45:15.563Z,6.35
2019-01-17T15:45:39.012Z,5.42
2019-01-17T15:46:02.463Z,6.17
2019-01-17T15:46:25.814Z,6.72
2019-01-17T15:46:49.269Z,6.67
2019-01-17T15:47:13.276Z,8.13
2019-01-17T15:47:36.884Z,10.00
2019-01-17T15:48:00.325Z,7.67
2019-01-17T15:48:23.883Z,8.95
2019-01-17T15:48:47.235Z,8.75
2019-01-17T15:49:10.675Z,8.95
2019-01-17T15:49:34.123Z,13.98
2019-01-17T15:49:57.633Z,11.50
2019-01-17T15:50:21.130Z,8.53
2019-01-17T15:50:44.457Z,10.85
2019-01-17T15:51:07.932Z,9.00
2019-01-17T15:51:31.376Z,11.40
2019-01-17T15:51:54.925Z,12.18
2019-01-17T15:52:18.277Z,13.40
2019-01-17T15:52:41.606Z,14.15
2019-01-17T15:53:05.073Z,11.78
2019-01-17T15:53:28.525Z,14.17
2019-01-17T15:53:51.973Z,15.25
2019-01-17T15:54:15.428Z,12.33
2019-01-17T15:54:38.984Z,11.00
2019-01-17T15:55:02.629Z,7.03
2019-01-17T15:55:26.184Z,6.47
2019-01-17T15:55:49.635Z,5.90
2019-01-17T15:56:13.089Z,7.00
2019-01-17T15:56:36.533Z,6.62
2019-01-17T15:57:00.185Z,6.37
2019-01-17T15:57:23.533Z,6.75
2019-01-17T15:57:47.090Z,10.90
2019-01-17T15:58:10.539Z,9.55
2019-01-17T15:58:34.089Z,9.00
2019-01-17T15:58:57.544Z,6.95
2019-01-17T15:59:23.349Z,7.78
2019-01-17T15:59:46.393Z,5.97
2019-01-17T16:00:21.763Z,9.80
2019-01-17T16:00:45.205Z,6.37
2019-01-17T16:01:08.713Z,6.47
2019-01-17T16:01:32.169Z,6.55
2019-01-17T16:01:55.721Z,9.03
2019-01-17T16:02:19.267Z,10.75
2019-01-17T16:02:42.716Z,4.87
2019-01-17T16:03:06.165Z,7.72
2019-01-17T16:03:29.730Z,12.70
2019-01-17T16:03:53.293Z,10.32
2019-01-17T16:04:17.038Z,7.47
2019-01-17T16:04:40.481Z,10.25
2019-01-17T16:05:04.336Z,9.03
2019-01-17T16:05:27.893Z,6.70
2019-01-17T16:05:51.418Z,7.42
2019-01-17T16:06:14.898Z,7.15
2019-01-17T16:06:38.553Z,5.83
2019-01-17T16:07:02.198Z,7.42
2019-01-17T16:07:25.861Z,6.35
2019-01-17T16:07:49.411Z,8.48
2019-01-17T16:08:12.862Z,6.87
2019-01-17T16:08:36.312Z,4.00
2019-01-17T16:08:59.861Z,4.33
2019-01-17T16:09:23.418Z,5.35
2019-01-17T16:09:46.870Z,6.53
2019-01-17T16:10:15.049Z,5.80
2019-01-17T16:10:38.645Z,7.03
2019-01-17T16:11:02.147Z,7.03
2019-01-17T16:11:25.575Z,5.12
2019-01-17T16:11:49.138Z,6.17
2019-01-17T16:12:12.681Z,12.70
2019-01-17T16:12:36.238Z,17.05
2019-01-17T16:12:59.684Z,15.32
2019-01-17T16:13:23.237Z,16.12
2019-01-17T16:13:46.787Z,16.12
2019-01-17T16:14:10.236Z,21.73
2019-01-17T16:14:33.791Z,25.80
2019-01-17T16:14:57.239Z,26.80
2019-01-17T16:15:25.315Z,26.57
2019-01-17T16:15:48.856Z,29.30
2019-01-17T16:16:12.301Z,25.62
2019-01-17T16:16:35.963Z,26.42
2019-01-17T16:16:59.504Z,27.27
2019-01-17T16:17:22.963Z,25.82
2019-01-17T16:17:46.414Z,28.35
2019-01-17T16:18:09.962Z,31.68
2019-01-17T16:18:33.510Z,31.30
2019-01-17T16:18:56.967Z,25.62
2019-01-17T16:19:20.519Z,27.20
2019-01-17T16:19:44.066Z,27.35
2019-01-17T16:20:10.589Z,25.52
2019-01-17T16:20:34.041Z,28.60
2019-01-17T16:20:57.690Z,31.52
2019-01-17T16:21:21.148Z,32.53
2019-01-17T16:21:44.592Z,30.80
2019-01-17T16:22:08.151Z,18.70
2019-01-17T16:22:31.705Z,21.60
2019-01-17T16:22:55.249Z,32.85
2019-01-17T16:23:18.965Z,30.32
2019-01-17T16:23:42.562Z,45.98
2019-01-17T16:24:06.010Z,44.63
2019-01-17T16:24:29.566Z,35.75
2019-01-17T16:24:53.216Z,22.48
2019-01-17T16:25:16.623Z,23.73
2019-01-17T16:25:40.118Z,16.75
2019-01-17T16:26:03.772Z,13.48
2019-01-17T16:26:27.328Z,6.22
2019-01-17T16:26:50.873Z,11.83
2019-01-17T16:27:14.323Z,9.78
2019-01-17T16:27:41.860Z,8.60
2019-01-17T16:28:02.870Z,6.33
2019-01-17T16:28:26.421Z,6.97
2019-01-17T16:28:49.985Z,8.80
2019-01-17T16:29:13.374Z,7.40
2019-01-17T16:29:36.982Z,6.85
2019-01-17T16:30:00.522Z,6.70
2019-01-17T16:30:26.148Z,8.73
2019-01-17T16:30:49.674Z,8.63
2019-01-17T16:31:13.088Z,6.65
2019-01-17T16:31:36.682Z,6.03
2019-01-17T16:32:00.229Z,7.10
2019-01-17T16:32:23.779Z,7.17
2019-01-17T16:32:47.343Z,5.87
2019-01-17T16:33:10.696Z,5.92
2019-01-17T16:33:34.164Z,8.45
2019-01-17T16:33:57.889Z,7.95
2019-01-17T16:34:21.441Z,5.37
2019-01-17T16:34:44.893Z,5.50
2019-01-17T16:35:08.348Z,4.92
2019-01-17T16:35:31.890Z,5.65
2019-01-17T16:35:55.242Z,5.40
2019-01-17T16:36:18.899Z,5.05
2019-01-17T16:36:42.470Z,5.80
2019-01-17T16:37:06.007Z,8.70
2019-01-17T16:37:29.445Z,7.47
2019-01-17T16:37:52.883Z,7.42
2019-01-17T16:38:16.455Z,7.85
2019-01-17T16:38:40.008Z,6.60
2019-01-17T16:39:03.661Z,5.72
2019-01-17T16:39:27.206Z,9.58
2019-01-17T16:39:50.761Z,6.87
2019-01-17T16:40:14.737Z,5.03
2019-01-17T16:40:38.276Z,8.35
2019-01-17T16:41:01.640Z,7.45
2019-01-17T16:41:25.072Z,5.87
2019-01-17T16:41:48.627Z,8.83
2019-01-17T16:42:12.279Z,5.62
2019-01-17T16:42:35.626Z,5.72
2019-01-17T16:42:59.076Z,5.25
2019-01-17T16:43:22.626Z,10.13
2019-01-17T16:43:46.286Z,8.75
2019-01-17T16:44:09.838Z,5.30
2019-01-17T16:44:33.501Z,6.65
2019-01-17T16:44:56.948Z,7.85
2019-01-17T16:45:22.600Z,11.00
2019-01-17T16:45:45.991Z,8.18
2019-01-17T16:46:09.645Z,6.70
2019-01-17T16:46:33.102Z,8.03
2019-01-17T16:46:56.625Z,7.58
2019-01-17T16:47:20.106Z,6.15
2019-01-17T16:47:43.550Z,8.65
2019-01-17T16:48:07.209Z,8.73
2019-01-17T16:48:30.740Z,7.28
2019-01-17T16:48:54.202Z,11.03
2019-01-17T16:49:17.765Z,9.13
2019-01-17T16:49:41.205Z,5.10
2019-01-17T16:50:10.697Z,5.55
2019-01-17T16:50:34.147Z,8.03
2019-01-17T16:50:57.571Z,7.00
2019-01-17T16:51:21.048Z,7.53
2019-01-17T16:51:44.478Z,6.62
2019-01-17T16:52:08.049Z,6.67
2019-01-17T16:52:31.541Z,5.03
2019-01-17T16:52:54.920Z,6.12
2019-01-17T16:53:18.355Z,6.15
2019-01-17T16:53:41.850Z,5.97
2019-01-17T16:54:05.407Z,5.00
2019-01-17T16:54:28.856Z,6.35
2019-01-17T16:54:52.414Z,7.08
2019-01-17T16:55:16.061Z,5.50
2019-01-17T16:55:39.607Z,4.30
2019-01-17T16:56:03.162Z,5.22
2019-01-17T16:56:26.650Z,7.83
2019-01-17T16:56:50.062Z,7.47
2019-01-17T16:57:13.518Z,6.65
2019-01-17T16:57:37.073Z,7.22
2019-01-17T16:58:00.515Z,9.48
2019-01-17T16:58:23.969Z,12.05
2019-01-17T16:58:47.415Z,11.45
2019-01-17T16:59:11.068Z,8.68
2019-01-17T16:59:34.619Z,7.25
2019-01-17T16:59:58.276Z,8.83
2019-01-17T17:00:30.737Z,11.68
2019-01-17T17:00:54.293Z,11.03
2019-01-17T17:01:17.848Z,6.30
2019-01-17T17:01:41.392Z,5.05
2019-01-17T17:02:04.843Z,8.20
2019-01-17T17:02:28.198Z,9.95
2019-01-17T17:02:51.752Z,7.62
2019-01-17T17:03:15.300Z,7.17
2019-01-17T17:03:38.802Z,8.88
2019-01-17T17:04:02.299Z,7.28
2019-01-17T17:04:25.746Z,6.75
2019-01-17T17:04:49.141Z,6.78
2019-01-17T17:05:12.646Z,6.25
2019-01-17T17:05:36.199Z,10.53
2019-01-17T17:05:59.757Z,8.85
2019-01-17T17:06:23.264Z,9.85
2019-01-17T17:06:46.856Z,12.20
2019-01-17T17:07:10.413Z,14.03
2019-01-17T17:07:33.867Z,14.33
2019-01-17T17:07:57.419Z,17.40
2019-01-17T17:08:20.860Z,17.87
2019-01-17T17:08:44.316Z,12.43
2019-01-17T17:09:08.380Z,13.43
2019-01-17T17:09:31.828Z,9.38
2019-01-17T17:09:55.378Z,9.88
2019-01-17T17:10:18.826Z,8.93
2019-01-17T17:10:42.275Z,11.18
2019-01-17T17:11:06.473Z,5.80
2019-01-17T17:11:30.096Z,4.92
2019-01-17T17:11:53.548Z,6.35
2019-01-17T17:12:17.005Z,5.47
2019-01-17T17:12:40.450Z,7.12
2019-01-17T17:13:03.846Z,4.50
2019-01-17T17:13:27.352Z,4.83
2019-01-17T17:13:50.899Z,4.55
2019-01-17T17:14:14.225Z,5.22
2019-01-17T17:14:37.702Z,5.40
2019-01-17T17:15:01.247Z,8.75
2019-01-17T17:15:24.808Z,4.78
2019-01-17T17:15:48.353Z,6.05
2019-01-17T17:16:11.803Z,8.18
2019-01-17T17:16:35.394Z,4.53
2019-01-17T17:16:59.014Z,4.58
2019-01-17T17:17:22.437Z,3.92
2019-01-17T17:17:45.917Z,6.95
2019-01-17T17:18:09.577Z,7.47
2019-01-17T17:18:33.121Z,5.55
2019-01-17T17:18:56.601Z,5.42
2019-01-17T17:19:20.129Z,6.37
2019-01-17T17:19:43.576Z,6.28
2019-01-17T17:20:10.224Z,6.35
2019-01-17T17:20:33.744Z,7.53
2019-01-17T17:20:57.297Z,5.28
2019-01-17T17:21:20.753Z,4.47
2019-01-17T17:21:44.298Z,5.53
2019-01-17T17:22:07.757Z,4.80
2019-01-17T17:22:31.204Z,6.45
2019-01-17T17:22:54.755Z,6.97
2019-01-17T17:23:18.200Z,7.47
2019-01-17T17:23:41.754Z,5.28
2019-01-17T17:24:05.206Z,5.28
2019-01-17T17:24:28.763Z,5.72
2019-01-17T17:24:52.418Z,6.15
2019-01-17T17:25:15.765Z,5.75
2019-01-17T17:25:39.318Z,5.22
2019-01-17T17:26:02.965Z,8.05
2019-01-17T17:26:26.314Z,5.62
2019-01-17T17:26:49.769Z,6.03
2019-01-17T17:27:13.324Z,5.30
2019-01-17T17:27:36.865Z,6.20
2019-01-17T17:28:00.425Z,6.30
2019-01-17T17:28:23.978Z,6.20
2019-01-17T17:28:47.512Z,7.22
2019-01-17T17:29:10.974Z,8.38
2019-01-17T17:29:34.384Z,7.67
2019-01-17T17:29:57.778Z,7.30
2019-01-17T17:30:23.525Z,6.55
2019-01-17T17:30:47.127Z,7.17
2019-01-17T17:31:10.683Z,13.08
2019-01-17T17:31:34.258Z,23.65
2019-01-17T17:31:57.787Z,26.25
2019-01-17T17:32:21.344Z,28.47
2019-01-17T17:32:44.989Z,29.90
2019-01-17T17:33:08.543Z,31.85